createdAt,value
2022-08-28T00:02:48.251Z,42.22
2022-08-28T00:05:52.500Z,41.91
2022-08-28T00:08:55.677Z,43.22
2022-08-28T00:11:58.570Z,42.07
2022-08-28T00:15:01.406Z,43.27
2022-08-28T00:18:05.157Z,43.14
2022-08-28T00:21:10.209Z,44.11
2022-08-28T00:24:13.188Z,45.20
2022-08-28T00:27:33.799Z,51.41
2022-08-28T00:30:37.825Z,48.94
2022-08-28T00:33:40.815Z,49.97
2022-08-28T00:36:45.042Z,47.34
2022-08-28T00:39:48.010Z,46.24
2022-08-28T00:42:51.372Z,44.41
2022-08-28T00:45:54.208Z,45.43
2022-08-28T00:48:59.580Z,45.54
2022-08-28T00:52:12.815Z,43.67
2022-08-28T00:55:17.069Z,43.50
2022-08-28T00:58:20.313Z,43.60
2022-08-28T01:01:23.242Z,43.63
2022-08-28T01:04:27.042Z,44.26
2022-08-28T01:07:31.447Z,45.26
2022-08-28T01:10:36.981Z,48.83
2022-08-28T01:13:41.285Z,52.03
2022-08-28T01:16:44.587Z,52.99
2022-08-28T01:19:52.389Z,52.88
2022-08-28T01:23:01.640Z,50.14
2022-08-28T01:26:06.513Z,49.87
2022-08-28T01:29:15.227Z,48.73
2022-08-28T01:32:29.542Z,45.81
2022-08-28T01:35:33.655Z,48.34
2022-08-28T01:38:36.430Z,43.41
2022-08-28T01:41:41.791Z,43.42
2022-08-28T01:44:44.742Z,42.05
2022-08-28T01:47:48.591Z,43.97
2022-08-28T01:50:54.913Z,42.01
2022-08-28T01:53:57.764Z,43.35
2022-08-28T01:57:02.084Z,42.18
2022-08-28T02:00:05.324Z,43.18
2022-08-28T02:03:08.646Z,41.38
2022-08-28T02:06:11.644Z,39.26
2022-08-28T02:09:14.949Z,39.67
2022-08-28T02:12:20.730Z,40.11
2022-08-28T02:15:25.135Z,41.44
2022-08-28T02:18:27.976Z,41.64
2022-08-28T02:21:30.878Z,37.65
2022-08-28T02:24:33.683Z,38.13
2022-08-28T02:27:38.096Z,39.59
2022-08-28T02:30:41.222Z,37.77
2022-08-28T02:33:45.008Z,36.67
2022-08-28T02:36:48.055Z,36.92
2022-08-28T02:39:51.539Z,37.55
2022-08-28T02:42:55.806Z,38.97
2022-08-28T02:45:58.814Z,42.54
2022-08-28T02:49:01.615Z,43.07
2022-08-28T02:52:04.769Z,38.57
2022-08-28T02:55:08.107Z,39.43
2022-08-28T02:58:12.396Z,39.66
2022-08-28T03:01:15.452Z,40.27
2022-08-28T03:04:18.503Z,41.93
2022-08-28T03:07:22.823Z,41.87
2022-08-28T03:10:25.668Z,43.34
2022-08-28T03:13:30.221Z,42.81
2022-08-28T03:16:34.319Z,41.47
2022-08-28T03:19:37.159Z,42.23
2022-08-28T03:22:57.575Z,41.62
2022-08-28T03:26:01.176Z,39.57
2022-08-28T03:29:05.350Z,39.87
2022-08-28T03:32:08.193Z,41.86
2022-08-28T03:35:12.121Z,41.47
2022-08-28T03:38:14.964Z,41.28
2022-08-28T03:41:18.959Z,41.14
2022-08-28T03:44:23.148Z,41.35
2022-08-28T03:47:28.362Z,42.68
2022-08-28T03:50:32.547Z,43.13
2022-08-28T03:53:36.166Z,42.03
2022-08-28T03:56:42.288Z,42.37
2022-08-28T03:59:46.470Z,43.53
2022-08-28T04:02:49.255Z,44.63
2022-08-28T04:05:52.426Z,44.63
2022-08-28T04:08:55.880Z,44.54
2022-08-28T04:12:03.635Z,45.21
2022-08-28T04:15:08.736Z,47.96
2022-08-28T04:18:12.219Z,44.26
2022-08-28T04:21:16.828Z,44.01
2022-08-28T04:24:19.616Z,41.69
2022-08-28T04:27:22.421Z,44.19
2022-08-28T04:30:26.569Z,45.66
2022-08-28T04:33:29.868Z,45.89
2022-08-28T04:36:33.688Z,42.96
2022-08-28T04:39:36.545Z,48.68
2022-08-28T04:42:40.170Z,56.36
2022-08-28T04:45:45.088Z,55.23
2022-08-28T04:48:47.936Z,58.26
2022-08-28T04:51:50.731Z,55.42
2022-08-28T04:54:53.634Z,56.58
2022-08-28T04:57:56.414Z,60.13
2022-08-28T05:01:06.165Z,59.98
2022-08-28T05:04:11.408Z,59.18
2022-08-28T05:07:14.225Z,53.97
2022-08-28T05:10:17.170Z,58.23
2022-08-28T05:13:20.841Z,54.70
2022-08-28T05:16:25.184Z,57.09
2022-08-28T05:19:28.657Z,58.83
2022-08-28T05:22:31.796Z,58.27
2022-08-28T05:25:36.263Z,61.15
2022-08-28T05:28:39.390Z,63.11
2022-08-28T05:31:43.637Z,64.60
2022-08-28T05:34:47.111Z,62.83
2022-08-28T05:37:50.447Z,60.95
2022-08-28T05:40:53.278Z,51.15
2022-08-28T05:43:56.047Z,57.17
2022-08-28T05:47:00.284Z,56.59
2022-08-28T05:50:03.316Z,52.20
2022-08-28T05:53:06.263Z,57.01
2022-08-28T05:56:09.443Z,53.09
2022-08-28T05:59:13.029Z,51.81
2022-08-28T06:02:17.548Z,55.71
2022-08-28T06:05:20.463Z,58.27
2022-08-28T06:08:23.706Z,60.56
2022-08-28T06:11:27.279Z,52.82
2022-08-28T06:14:33.638Z,54.31
2022-08-28T06:17:38.817Z,56.38
2022-08-28T06:20:42.728Z,57.81
2022-08-28T06:23:45.643Z,52.22
2022-08-28T06:26:48.532Z,56.06
2022-08-28T06:29:51.388Z,56.51
2022-08-28T06:32:55.661Z,55.81
2022-08-28T06:35:58.583Z,54.00
2022-08-28T06:39:02.161Z,55.36
2022-08-28T06:42:05.635Z,64.00
2022-08-28T06:45:09.145Z,63.62
2022-08-28T06:48:16.516Z,55.72
2022-08-28T06:51:20.528Z,57.96
2022-08-28T06:54:31.004Z,58.03
2022-08-28T06:57:33.871Z,58.09
2022-08-28T07:00:38.110Z,59.21
2022-08-28T07:03:44.268Z,54.35
2022-08-28T07:06:54.034Z,59.60
2022-08-28T07:09:57.411Z,58.52
2022-08-28T07:13:00.975Z,55.83
2022-08-28T07:16:04.232Z,60.09
2022-08-28T07:19:10.017Z,62.57
2022-08-28T07:22:13.520Z,62.18
2022-08-28T07:25:17.203Z,63.49
2022-08-28T07:28:21.819Z,67.11
2022-08-28T07:31:26.645Z,68.21
2022-08-28T07:34:31.070Z,65.06
2022-08-28T07:37:33.892Z,68.70
2022-08-28T07:40:37.886Z,66.36
2022-08-28T07:43:58.150Z,67.18
2022-08-28T07:47:02.379Z,65.98
2022-08-28T07:50:07.219Z,60.66
2022-08-28T07:53:10.007Z,62.25
2022-08-28T07:56:13.174Z,63.40
2022-08-28T07:59:17.579Z,61.96
2022-08-28T08:02:22.373Z,64.49
2022-08-28T08:05:26.679Z,67.98
2022-08-28T08:08:30.231Z,63.36
2022-08-28T08:11:34.772Z,62.49
2022-08-28T08:14:38.111Z,66.15
2022-08-28T08:17:41.322Z,66.82
2022-08-28T08:20:45.494Z,65.36
2022-08-28T08:23:49.097Z,65.25
2022-08-28T08:27:00.331Z,62.48
2022-08-28T08:30:03.770Z,62.24
2022-08-28T08:33:07.628Z,61.17
2022-08-28T08:36:13.319Z,61.00
2022-08-28T08:39:16.392Z,62.61
2022-08-28T08:42:25.144Z,63.68
2022-08-28T08:45:29.595Z,60.59
2022-08-28T08:48:35.217Z,59.62
2022-08-28T08:51:41.757Z,58.75
2022-08-28T08:54:45.821Z,58.26
2022-08-28T08:57:52.677Z,56.67
2022-08-28T09:00:59.395Z,50.46
2022-08-28T09:04:05.215Z,52.40
2022-08-28T09:07:15.369Z,49.74
2022-08-28T09:10:18.292Z,53.03
2022-08-28T09:13:25.606Z,51.71
2022-08-28T09:16:31.314Z,53.43
2022-08-28T09:19:34.662Z,51.79
2022-08-28T09:22:40.272Z,49.59
2022-08-28T09:25:54.203Z,51.80
2022-08-28T09:29:01.311Z,56.39
2022-08-28T09:32:18.063Z,55.12
2022-08-28T09:35:27.283Z,60.04
2022-08-28T09:38:32.926Z,63.54
2022-08-28T09:41:57.248Z,60.23
2022-08-28T09:45:02.154Z,58.90
2022-08-28T09:48:20.440Z,56.53
2022-08-28T09:51:29.334Z,64.99
2022-08-28T09:54:35.508Z,68.60
2022-08-28T09:57:38.947Z,68.37
2022-08-28T10:00:45.003Z,69.91
2022-08-28T10:03:53.000Z,68.81
2022-08-28T10:06:59.488Z,70.20
2022-08-28T10:10:17.069Z,68.37
2022-08-28T10:13:23.915Z,66.85
2022-08-28T10:16:32.084Z,68.37
2022-08-28T10:19:41.312Z,72.32
2022-08-28T10:22:50.432Z,68.55
2022-08-28T10:25:58.562Z,66.98
2022-08-28T10:29:07.989Z,70.02
2022-08-28T10:32:21.420Z,66.15
2022-08-28T10:35:25.507Z,65.30
2022-08-28T10:38:33.927Z,64.96
2022-08-28T10:41:42.320Z,66.92
2022-08-28T10:44:50.491Z,63.87
2022-08-28T10:47:56.816Z,63.54
2022-08-28T10:51:02.835Z,62.30
2022-08-28T10:54:08.303Z,56.90
2022-08-28T10:57:19.050Z,51.62
2022-08-28T11:00:23.137Z,54.31
2022-08-28T11:03:35.911Z,50.53
2022-08-28T11:06:42.733Z,48.66
2022-08-28T11:09:48.087Z,47.45
2022-08-28T11:12:53.559Z,42.51
2022-08-28T11:15:56.416Z,31.01
2022-08-28T11:19:07.979Z,32.96
2022-08-28T11:22:12.473Z,36.25
2022-08-28T11:25:17.424Z,39.14
2022-08-28T11:28:41.982Z,38.08
2022-08-28T11:31:44.852Z,31.40
2022-08-28T11:35:00.114Z,38.14
2022-08-28T11:38:02.978Z,32.75
2022-08-28T11:41:11.558Z,32.22
2022-08-28T11:44:40.471Z,30.61
2022-08-28T11:47:48.195Z,30.88
2022-08-28T11:50:54.835Z,30.91
2022-08-28T11:54:02.804Z,31.13
2022-08-28T11:57:08.755Z,29.37
2022-08-28T12:00:24.052Z,30.53
2022-08-28T12:03:28.650Z,29.31
2022-08-28T12:06:50.256Z,29.42
2022-08-28T12:09:53.288Z,31.30
2022-08-28T12:12:57.200Z,32.04
2022-08-28T12:16:06.696Z,33.68
2022-08-28T12:19:10.369Z,33.80
2022-08-28T12:22:14.080Z,37.55
2022-08-28T12:25:24.532Z,36.95
2022-08-28T12:28:31.871Z,36.85
2022-08-28T12:32:13.604Z,38.92
2022-08-28T12:35:19.674Z,38.57
2022-08-28T12:38:26.372Z,39.70
2022-08-28T12:41:29.312Z,38.85
2022-08-28T12:44:33.858Z,40.12
2022-08-28T12:47:37.603Z,42.54
2022-08-28T12:50:42.296Z,42.77
2022-08-28T12:53:46.367Z,42.73
2022-08-28T12:56:49.225Z,43.21
2022-08-28T12:59:53.544Z,43.51
2022-08-28T13:02:57.956Z,44.81
2022-08-28T13:06:04.676Z,43.60
2022-08-28T13:09:08.955Z,43.35
2022-08-28T13:12:18.250Z,44.44
2022-08-28T13:15:36.044Z,43.78
2022-08-28T13:18:40.973Z,44.00
2022-08-28T13:21:59.457Z,46.49
2022-08-28T13:25:02.954Z,44.47
2022-08-28T13:28:12.659Z,47.00
2022-08-28T13:31:23.348Z,49.13
2022-08-28T13:34:27.083Z,48.77
2022-08-28T13:37:43.588Z,50.38
2022-08-28T13:41:03.947Z,51.55
2022-08-28T13:44:07.513Z,49.02
2022-08-28T13:47:10.418Z,50.03
2022-08-28T13:50:13.361Z,51.57
2022-08-28T13:53:18.170Z,53.28
2022-08-28T13:56:21.908Z,56.05
2022-08-28T13:59:24.790Z,55.59
2022-08-28T14:02:45.483Z,56.75
2022-08-28T14:05:48.526Z,57.80
2022-08-28T14:08:52.788Z,57.75
2022-08-28T14:11:56.999Z,58.14
2022-08-28T14:15:00.126Z,58.75
2022-08-28T14:18:02.990Z,59.95
2022-08-28T14:21:06.446Z,59.18
2022-08-28T14:24:10.936Z,58.66
2022-08-28T14:27:13.764Z,57.53
2022-08-28T14:30:17.136Z,57.05
2022-08-28T14:33:22.143Z,59.05
2022-08-28T14:36:26.725Z,63.14
2022-08-28T14:39:32.320Z,65.19
2022-08-28T14:42:35.175Z,68.40
2022-08-28T14:45:44.005Z,72.00
2022-08-28T14:48:50.559Z,73.55
2022-08-28T14:51:54.233Z,76.61
2022-08-28T14:54:59.349Z,80.69
2022-08-28T15:01:05.831Z,75.82
2022-08-28T15:04:13.784Z,83.37
2022-08-28T15:07:16.912Z,77.94
2022-08-28T15:10:24.653Z,92.71
2022-08-28T15:13:31.439Z,80.57
2022-08-28T15:16:40.765Z,91.37
2022-08-28T15:19:43.975Z,100.00
2022-08-28T15:22:48.610Z,100.00
2022-08-28T15:26:00.464Z,100.00
2022-08-28T15:29:03.806Z,100.00
2022-08-28T15:32:07.803Z,92.36
2022-08-28T15:35:11.454Z,100.00
2022-08-28T15:38:14.436Z,100.00
2022-08-28T15:41:26.810Z,94.66
2022-08-28T15:44:29.721Z,79.11
2022-08-28T15:47:32.836Z,90.10
2022-08-28T15:50:36.325Z,92.82
2022-08-28T15:53:40.063Z,88.36
2022-08-28T15:56:44.225Z,69.01
2022-08-28T15:59:50.630Z,66.78
2022-08-28T16:02:59.923Z,66.44
2022-08-28T16:06:03.092Z,67.95
2022-08-28T16:09:06.573Z,68.82
2022-08-28T16:12:10.780Z,65.86
2022-08-28T16:15:16.105Z,70.83
2022-08-28T16:18:23.599Z,68.43
2022-08-28T16:21:27.526Z,67.47
2022-08-28T16:24:31.511Z,66.34
2022-08-28T16:27:35.644Z,69.55
2022-08-28T16:30:43.934Z,80.93
2022-08-28T16:33:47.443Z,79.28
2022-08-28T16:36:51.717Z,71.74
2022-08-28T16:39:54.890Z,86.08
2022-08-28T16:43:02.366Z,100.00
2022-08-28T16:46:09.662Z,80.81
2022-08-28T16:49:13.264Z,80.78
2022-08-28T16:52:16.763Z,82.00
2022-08-28T16:55:21.303Z,91.19
2022-08-28T16:58:26.895Z,95.66
2022-08-28T17:01:29.836Z,95.98
2022-08-28T17:04:34.241Z,95.06
2022-08-28T17:07:37.290Z,96.87
2022-08-28T17:10:41.909Z,100.00
2022-08-28T17:13:48.767Z,100.00
2022-08-28T17:16:54.424Z,100.00
2022-08-28T17:20:01.242Z,100.00
2022-08-28T17:23:05.213Z,100.00
2022-08-28T17:26:10.548Z,100.00
2022-08-28T17:29:22.455Z,100.00
2022-08-28T17:32:27.673Z,100.00
2022-08-28T17:35:33.197Z,100.00
2022-08-28T17:38:45.075Z,100.00
2022-08-28T17:41:49.150Z,100.00
2022-08-28T17:44:53.766Z,100.00
2022-08-28T17:47:58.250Z,100.00
2022-08-28T17:51:03.508Z,100.00
2022-08-28T17:54:07.098Z,100.00
2022-08-28T17:57:11.940Z,100.00
2022-08-28T18:00:18.415Z,100.00
2022-08-28T18:03:23.058Z,100.00
2022-08-28T18:06:25.965Z,100.00
2022-08-28T18:09:28.883Z,100.00
2022-08-28T18:12:32.878Z,100.00
2022-08-28T18:15:41.820Z,100.00
2022-08-28T18:18:47.511Z,100.00
2022-08-28T18:21:53.279Z,100.00
2022-08-28T18:24:57.212Z,100.00
2022-08-28T18:28:00.454Z,100.00
2022-08-28T18:31:06.976Z,100.00
2022-08-28T18:34:12.116Z,100.00
2022-08-28T18:37:16.827Z,100.00
2022-08-28T18:40:37.302Z,100.00
2022-08-28T18:43:49.056Z,100.00
2022-08-28T18:46:54.866Z,98.39
2022-08-28T18:49:58.392Z,100.00
2022-08-28T18:53:02.742Z,100.00
2022-08-28T18:56:06.510Z,100.00
2022-08-28T18:59:10.376Z,100.00
2022-08-28T19:02:18.149Z,100.00
2022-08-28T19:05:23.345Z,100.00
2022-08-28T19:08:27.161Z,100.00
2022-08-28T19:11:31.948Z,100.00
2022-08-28T19:14:40.197Z,100.00
2022-08-28T19:17:55.608Z,100.00
2022-08-28T19:21:06.030Z,100.00
2022-08-28T19:24:09.636Z,100.00
2022-08-28T19:27:13.900Z,100.00
2022-08-28T19:30:18.322Z,100.00
2022-08-28T19:33:28.329Z,100.00
2022-08-28T19:36:33.750Z,100.00
2022-08-28T19:39:37.069Z,100.00
2022-08-28T19:42:39.935Z,100.00
2022-08-28T19:45:44.945Z,100.00
2022-08-28T19:48:49.471Z,100.00
2022-08-28T19:51:55.402Z,100.00
2022-08-28T19:54:58.248Z,100.00
2022-08-28T19:58:04.164Z,100.00
2022-08-28T20:01:07.197Z,100.00
2022-08-28T20:04:17.553Z,100.00
2022-08-28T20:07:20.940Z,100.00
2022-08-28T20:10:25.187Z,100.00
2022-08-28T20:13:28.042Z,100.00
2022-08-28T20:16:31.041Z,100.00
2022-08-28T20:19:39.197Z,100.00
2022-08-28T20:22:42.509Z,100.00
2022-08-28T20:25:47.583Z,100.00
2022-08-28T20:28:52.667Z,100.00
2022-08-28T20:31:55.562Z,100.00
2022-08-28T20:34:59.915Z,100.00
2022-08-28T20:38:03.296Z,100.00
2022-08-28T20:41:06.932Z,100.00
2022-08-28T20:44:12.773Z,100.00
2022-08-28T20:47:18.863Z,100.00
2022-08-28T20:50:23.509Z,100.00
2022-08-28T20:53:37.397Z,100.00
2022-08-28T20:56:40.842Z,100.00
2022-08-28T20:59:44.712Z,100.00
2022-08-28T21:02:47.678Z,100.00
2022-08-28T21:05:53.113Z,100.00
2022-08-28T21:08:56.578Z,100.00
2022-08-28T21:12:05.577Z,100.00
2022-08-28T21:15:18.841Z,100.00
2022-08-28T21:18:31.102Z,100.00
2022-08-28T21:21:38.151Z,100.00
2022-08-28T21:24:40.970Z,100.00
2022-08-28T21:27:43.907Z,100.00
2022-08-28T21:30:46.829Z,100.00
2022-08-28T21:33:49.674Z,100.00
2022-08-28T21:36:54.336Z,100.00
2022-08-28T21:39:57.303Z,100.00
2022-08-28T21:43:00.148Z,100.00
2022-08-28T21:46:04.379Z,100.00
2022-08-28T21:49:09.919Z,100.00
2022-08-28T21:52:19.455Z,100.00
2022-08-28T21:55:22.415Z,100.00
2022-08-28T21:58:25.234Z,100.00
2022-08-28T22:01:28.064Z,100.00
2022-08-28T22:04:31.204Z,100.00
2022-08-28T22:07:35.347Z,100.00
2022-08-28T22:10:40.458Z,100.00
2022-08-28T22:13:43.549Z,100.00
2022-08-28T22:16:46.619Z,100.00
2022-08-28T22:19:49.555Z,100.00
2022-08-28T22:23:11.117Z,100.00
2022-08-28T22:26:15.163Z,100.00
2022-08-28T22:29:17.992Z,100.00
2022-08-28T22:32:25.527Z,100.00
2022-08-28T22:35:28.528Z,100.00
2022-08-28T22:38:32.900Z,100.00
2022-08-28T22:41:37.573Z,100.00
2022-08-28T22:44:40.462Z,100.00
2022-08-28T22:47:43.546Z,100.00
2022-08-28T22:50:47.428Z,100.00
2022-08-28T22:53:54.442Z,100.00
2022-08-28T22:56:57.195Z,100.00
2022-08-28T23:00:03.175Z,100.00
2022-08-28T23:03:06.789Z,100.00
2022-08-28T23:06:09.691Z,100.00
2022-08-28T23:09:13.821Z,100.00
2022-08-28T23:12:16.737Z,100.00
2022-08-28T23:15:21.620Z,100.00
2022-08-28T23:18:24.404Z,100.00
2022-08-28T23:21:28.544Z,100.00
2022-08-28T23:24:32.766Z,100.00
2022-08-28T23:27:36.786Z,100.00
2022-08-28T23:30:43.980Z,100.00
2022-08-28T23:33:51.228Z,100.00
2022-08-28T23:36:54.422Z,100.00
2022-08-28T23:39:59.353Z,100.00
2022-08-28T23:43:04.263Z,100.00
2022-08-28T23:46:07.464Z,100.00
2022-08-28T23:49:10.625Z,100.00
2022-08-28T23:52:13.419Z,100.00
2022-08-28T23:55:18.325Z,100.00
2022-08-28T23:58:22.450Z,100.00
